sensor_id;sensor_type;location;lat;lon;timestamp;P1;durP1;ratioP1;P2;durP2;ratioP2
4214;SDS011;2121;48.062;7.850;2022-07-24T00:00:37;11.13;;;9.90;;
4214;SDS011;2121;48.062;7.850;2022-07-24T00:03:04;13.23;;;11.60;;
4214;SDS011;2121;48.062;7.850;2022-07-24T00:05:30;12.13;;;10.10;;
4214;SDS011;2121;48.062;7.850;2022-07-24T00:07:56;13.63;;;12.13;;
4214;SDS011;2121;48.062;7.850;2022-07-24T00:10:22;11.03;;;10.03;;
4214;SDS011;2121;48.062;7.850;2022-07-24T00:12:48;11.57;;;10.17;;
4214;SDS011;2121;48.062;7.850;2022-07-24T00:15:14;10.93;;;9.83;;
4214;SDS011;2121;48.062;7.850;2022-07-24T00:17:40;11.03;;;9.93;;
4214;SDS011;2121;48.062;7.850;2022-07-24T00:20:06;11.30;;;10.20;;
4214;SDS011;2121;48.062;7.850;2022-07-24T00:22:33;10.27;;;8.93;;
4214;SDS011;2121;48.062;7.850;2022-07-24T00:24:59;12.70;;;10.37;;
4214;SDS011;2121;48.062;7.850;2022-07-24T00:27:25;10.60;;;9.47;;
4214;SDS011;2121;48.062;7.850;2022-07-24T00:29:51;10.50;;;9.40;;
4214;SDS011;2121;48.062;7.850;2022-07-24T00:32:17;10.73;;;9.63;;
4214;SDS011;2121;48.062;7.850;2022-07-24T00:34:42;10.23;;;9.27;;
4214;SDS011;2121;48.062;7.850;2022-07-24T00:37:08;11.87;;;10.37;;
4214;SDS011;2121;48.062;7.850;2022-07-24T00:39:34;11.13;;;10.00;;
4214;SDS011;2121;48.062;7.850;2022-07-24T00:42:00;14.33;;;12.27;;
4214;SDS011;2121;48.062;7.850;2022-07-24T00:44:26;13.50;;;11.40;;
4214;SDS011;2121;48.062;7.850;2022-07-24T00:46:52;12.03;;;10.47;;
4214;SDS011;2121;48.062;7.850;2022-07-24T00:49:18;11.93;;;10.57;;
4214;SDS011;2121;48.062;7.850;2022-07-24T00:51:46;12.40;;;10.90;;
4214;SDS011;2121;48.062;7.850;2022-07-24T00:54:14;11.70;;;10.60;;
4214;SDS011;2121;48.062;7.850;2022-07-24T00:56:42;10.43;;;9.37;;
4214;SDS011;2121;48.062;7.850;2022-07-24T00:59:10;11.53;;;10.03;;
4214;SDS011;2121;48.062;7.850;2022-07-24T01:01:36;11.40;;;9.43;;
4214;SDS011;2121;48.062;7.850;2022-07-24T01:04:02;10.90;;;9.10;;
4214;SDS011;2121;48.062;7.850;2022-07-24T01:06:28;10.97;;;9.87;;
4214;SDS011;2121;48.062;7.850;2022-07-24T01:08:54;11.70;;;10.60;;
4214;SDS011;2121;48.062;7.850;2022-07-24T01:11:21;14.37;;;10.07;;
4214;SDS011;2121;48.062;7.850;2022-07-24T01:13:48;10.20;;;9.20;;
4214;SDS011;2121;48.062;7.850;2022-07-24T01:16:15;9.83;;;8.83;;
4214;SDS011;2121;48.062;7.850;2022-07-24T01:18:41;14.33;;;10.80;;
4214;SDS011;2121;48.062;7.850;2022-07-24T01:21:07;16.30;;;10.20;;
4214;SDS011;2121;48.062;7.850;2022-07-24T01:23:34;11.90;;;10.70;;
4214;SDS011;2121;48.062;7.850;2022-07-24T01:26:00;12.10;;;10.00;;
4214;SDS011;2121;48.062;7.850;2022-07-24T01:28:27;9.83;;;8.87;;
4214;SDS011;2121;48.062;7.850;2022-07-24T01:30:53;13.03;;;10.60;;
4214;SDS011;2121;48.062;7.850;2022-07-24T01:33:19;10.27;;;9.27;;
4214;SDS011;2121;48.062;7.850;2022-07-24T01:35:45;12.17;;;10.33;;
4214;SDS011;2121;48.062;7.850;2022-07-24T01:38:11;10.97;;;9.87;;
4214;SDS011;2121;48.062;7.850;2022-07-24T01:40:40;10.90;;;9.80;;
4214;SDS011;2121;48.062;7.850;2022-07-24T01:43:05;11.90;;;9.30;;
4214;SDS011;2121;48.062;7.850;2022-07-24T01:45:32;11.63;;;10.00;;
4214;SDS011;2121;48.062;7.850;2022-07-24T01:47:57;11.33;;;10.17;;
4214;SDS011;2121;48.062;7.850;2022-07-24T01:50:23;11.47;;;9.30;;
4214;SDS011;2121;48.062;7.850;2022-07-24T01:52:50;11.03;;;9.90;;
4214;SDS011;2121;48.062;7.850;2022-07-24T01:55:18;19.10;;;9.90;;
4214;SDS011;2121;48.062;7.850;2022-07-24T01:57:45;14.30;;;9.87;;
4214;SDS011;2121;48.062;7.850;2022-07-24T02:00:11;11.57;;;9.47;;
4214;SDS011;2121;48.062;7.850;2022-07-24T02:02:38;11.90;;;9.60;;
4214;SDS011;2121;48.062;7.850;2022-07-24T02:05:06;13.43;;;9.90;;
4214;SDS011;2121;48.062;7.850;2022-07-24T02:07:33;11.73;;;9.90;;
4214;SDS011;2121;48.062;7.850;2022-07-24T02:09:59;10.97;;;9.63;;
4214;SDS011;2121;48.062;7.850;2022-07-24T02:12:25;10.93;;;9.53;;
4214;SDS011;2121;48.062;7.850;2022-07-24T02:14:50;10.70;;;9.60;;
4214;SDS011;2121;48.062;7.850;2022-07-24T02:17:16;14.20;;;10.70;;
4214;SDS011;2121;48.062;7.850;2022-07-24T02:19:42;9.53;;;8.53;;
4214;SDS011;2121;48.062;7.850;2022-07-24T02:22:08;15.67;;;9.97;;
4214;SDS011;2121;48.062;7.850;2022-07-24T02:24:34;13.60;;;10.00;;
4214;SDS011;2121;48.062;7.850;2022-07-24T02:27:00;12.70;;;11.50;;
4214;SDS011;2121;48.062;7.850;2022-07-24T02:29:26;13.97;;;12.23;;
4214;SDS011;2121;48.062;7.850;2022-07-24T02:31:52;16.10;;;10.63;;
4214;SDS011;2121;48.062;7.850;2022-07-24T02:34:17;11.47;;;9.73;;
4214;SDS011;2121;48.062;7.850;2022-07-24T02:36:43;12.67;;;10.83;;
4214;SDS011;2121;48.062;7.850;2022-07-24T02:39:09;12.13;;;10.40;;
4214;SDS011;2121;48.062;7.850;2022-07-24T02:41:35;11.27;;;10.10;;
4214;SDS011;2121;48.062;7.850;2022-07-24T02:44:01;11.10;;;9.63;;
4214;SDS011;2121;48.062;7.850;2022-07-24T02:46:27;11.40;;;9.60;;
4214;SDS011;2121;48.062;7.850;2022-07-24T02:48:52;10.57;;;9.50;;
4214;SDS011;2121;48.062;7.850;2022-07-24T02:51:18;12.23;;;10.10;;
4214;SDS011;2121;48.062;7.850;2022-07-24T02:53:44;15.03;;;11.20;;
4214;SDS011;2121;48.062;7.850;2022-07-24T02:56:09;12.40;;;9.33;;
4214;SDS011;2121;48.062;7.850;2022-07-24T02:58:35;11.80;;;10.50;;
4214;SDS011;2121;48.062;7.850;2022-07-24T03:01:01;9.70;;;8.80;;
4214;SDS011;2121;48.062;7.850;2022-07-24T03:03:27;10.57;;;9.57;;
4214;SDS011;2121;48.062;7.850;2022-07-24T03:05:53;9.70;;;8.70;;
4214;SDS011;2121;48.062;7.850;2022-07-24T03:08:19;11.00;;;9.60;;
4214;SDS011;2121;48.062;7.850;2022-07-24T03:10:44;11.90;;;10.20;;
4214;SDS011;2121;48.062;7.850;2022-07-24T03:13:10;11.73;;;9.90;;
4214;SDS011;2121;48.062;7.850;2022-07-24T03:15:37;11.50;;;9.80;;
4214;SDS011;2121;48.062;7.850;2022-07-24T03:18:03;13.50;;;10.40;;
4214;SDS011;2121;48.062;7.850;2022-07-24T03:20:29;11.07;;;9.70;;
4214;SDS011;2121;48.062;7.850;2022-07-24T03:22:55;11.67;;;9.27;;
4214;SDS011;2121;48.062;7.850;2022-07-24T03:25:22;11.23;;;10.10;;
4214;SDS011;2121;48.062;7.850;2022-07-24T03:27:49;11.03;;;9.73;;
4214;SDS011;2121;48.062;7.850;2022-07-24T03:30:16;14.43;;;10.30;;
4214;SDS011;2121;48.062;7.850;2022-07-24T03:32:42;11.17;;;9.77;;
4214;SDS011;2121;48.062;7.850;2022-07-24T03:35:08;11.20;;;9.47;;
4214;SDS011;2121;48.062;7.850;2022-07-24T03:37:34;12.07;;;10.43;;
4214;SDS011;2121;48.062;7.850;2022-07-24T03:40:01;12.97;;;10.27;;
4214;SDS011;2121;48.062;7.850;2022-07-24T03:42:28;12.73;;;9.50;;
4214;SDS011;2121;48.062;7.850;2022-07-24T03:44:54;11.50;;;10.27;;
4214;SDS011;2121;48.062;7.850;2022-07-24T03:47:19;12.77;;;11.00;;
4214;SDS011;2121;48.062;7.850;2022-07-24T03:49:45;14.00;;;11.33;;
4214;SDS011;2121;48.062;7.850;2022-07-24T03:52:11;11.40;;;10.27;;
4214;SDS011;2121;48.062;7.850;2022-07-24T03:54:37;11.97;;;9.80;;
4214;SDS011;2121;48.062;7.850;2022-07-24T03:57:03;15.80;;;10.87;;
4214;SDS011;2121;48.062;7.850;2022-07-24T03:59:29;13.70;;;10.10;;
4214;SDS011;2121;48.062;7.850;2022-07-24T04:01:54;11.47;;;10.33;;
4214;SDS011;2121;48.062;7.850;2022-07-24T04:04:20;12.03;;;10.97;;
4214;SDS011;2121;48.062;7.850;2022-07-24T04:06:46;12.20;;;10.90;;
4214;SDS011;2121;48.062;7.850;2022-07-24T04:09:13;11.10;;;9.80;;
4214;SDS011;2121;48.062;7.850;2022-07-24T04:11:39;11.60;;;9.63;;
4214;SDS011;2121;48.062;7.850;2022-07-24T04:14:04;12.63;;;11.33;;
4214;SDS011;2121;48.062;7.850;2022-07-24T04:16:31;14.83;;;10.30;;
4214;SDS011;2121;48.062;7.850;2022-07-24T04:18:57;12.30;;;10.17;;
4214;SDS011;2121;48.062;7.850;2022-07-24T04:21:23;10.30;;;8.90;;
4214;SDS011;2121;48.062;7.850;2022-07-24T04:23:48;11.40;;;9.73;;
4214;SDS011;2121;48.062;7.850;2022-07-24T04:26:14;11.63;;;9.37;;
4214;SDS011;2121;48.062;7.850;2022-07-24T04:28:40;14.10;;;11.07;;
4214;SDS011;2121;48.062;7.850;2022-07-24T04:31:07;10.57;;;9.40;;
4214;SDS011;2121;48.062;7.850;2022-07-24T04:33:33;14.37;;;11.47;;
4214;SDS011;2121;48.062;7.850;2022-07-24T04:35:59;10.93;;;9.53;;
4214;SDS011;2121;48.062;7.850;2022-07-24T04:38:24;10.60;;;9.50;;
4214;SDS011;2121;48.062;7.850;2022-07-24T04:40:50;13.23;;;10.27;;
4214;SDS011;2121;48.062;7.850;2022-07-24T04:43:16;10.10;;;9.10;;
4214;SDS011;2121;48.062;7.850;2022-07-24T04:45:42;13.67;;;8.90;;
4214;SDS011;2121;48.062;7.850;2022-07-24T04:48:09;11.80;;;9.50;;
4214;SDS011;2121;48.062;7.850;2022-07-24T04:50:35;13.63;;;9.60;;
4214;SDS011;2121;48.062;7.850;2022-07-24T04:53:00;11.63;;;10.43;;
4214;SDS011;2121;48.062;7.850;2022-07-24T04:55:26;10.10;;;9.10;;
4214;SDS011;2121;48.062;7.850;2022-07-24T04:57:53;12.23;;;10.73;;
4214;SDS011;2121;48.062;7.850;2022-07-24T05:00:19;9.97;;;8.87;;
4214;SDS011;2121;48.062;7.850;2022-07-24T05:02:45;10.07;;;8.97;;
4214;SDS011;2121;48.062;7.850;2022-07-24T05:05:10;12.73;;;9.03;;
4214;SDS011;2121;48.062;7.850;2022-07-24T05:07:36;12.13;;;9.77;;
4214;SDS011;2121;48.062;7.850;2022-07-24T05:10:03;10.50;;;9.50;;
4214;SDS011;2121;48.062;7.850;2022-07-24T05:12:30;10.07;;;9.00;;
4214;SDS011;2121;48.062;7.850;2022-07-24T05:14:56;10.87;;;9.77;;
4214;SDS011;2121;48.062;7.850;2022-07-24T05:17:22;11.27;;;9.63;;
4214;SDS011;2121;48.062;7.850;2022-07-24T05:19:47;13.73;;;10.43;;
4214;SDS011;2121;48.062;7.850;2022-07-24T05:22:13;11.63;;;9.23;;
4214;SDS011;2121;48.062;7.850;2022-07-24T05:24:39;10.07;;;9.07;;
4214;SDS011;2121;48.062;7.850;2022-07-24T05:27:05;8.60;;;7.80;;
4214;SDS011;2121;48.062;7.850;2022-07-24T05:29:31;9.73;;;8.73;;
4214;SDS011;2121;48.062;7.850;2022-07-24T05:31:56;8.93;;;8.03;;
4214;SDS011;2121;48.062;7.850;2022-07-24T05:34:22;10.30;;;8.47;;
4214;SDS011;2121;48.062;7.850;2022-07-24T05:36:48;11.13;;;9.20;;
4214;SDS011;2121;48.062;7.850;2022-07-24T05:39:15;9.20;;;8.30;;
4214;SDS011;2121;48.062;7.850;2022-07-24T05:41:41;9.03;;;8.23;;
4214;SDS011;2121;48.062;7.850;2022-07-24T05:44:07;10.63;;;8.03;;
4214;SDS011;2121;48.062;7.850;2022-07-24T05:46:32;10.90;;;8.30;;
4214;SDS011;2121;48.062;7.850;2022-07-24T05:48:58;9.90;;;8.90;;
4214;SDS011;2121;48.062;7.850;2022-07-24T05:51:24;9.70;;;8.80;;
4214;SDS011;2121;48.062;7.850;2022-07-24T05:53:50;13.07;;;9.20;;
4214;SDS011;2121;48.062;7.850;2022-07-24T05:56:17;10.03;;;9.00;;
4214;SDS011;2121;48.062;7.850;2022-07-24T05:58:43;10.57;;;8.83;;
4214;SDS011;2121;48.062;7.850;2022-07-24T06:01:08;10.27;;;8.03;;
4214;SDS011;2121;48.062;7.850;2022-07-24T06:03:34;10.23;;;9.20;;
4214;SDS011;2121;48.062;7.850;2022-07-24T06:06:01;9.13;;;8.27;;
4214;SDS011;2121;48.062;7.850;2022-07-24T06:08:30;10.03;;;8.70;;
4214;SDS011;2121;48.062;7.850;2022-07-24T06:10:56;10.20;;;8.73;;
4214;SDS011;2121;48.062;7.850;2022-07-24T06:13:22;15.80;;;9.23;;
4214;SDS011;2121;48.062;7.850;2022-07-24T06:15:47;10.77;;;7.97;;
4214;SDS011;2121;48.062;7.850;2022-07-24T06:18:13;8.80;;;7.90;;
4214;SDS011;2121;48.062;7.850;2022-07-24T06:20:39;9.93;;;8.90;;
4214;SDS011;2121;48.062;7.850;2022-07-24T06:23:05;12.10;;;9.20;;
4214;SDS011;2121;48.062;7.850;2022-07-24T06:25:31;7.97;;;7.27;;
4214;SDS011;2121;48.062;7.850;2022-07-24T06:27:57;11.07;;;9.50;;
4214;SDS011;2121;48.062;7.850;2022-07-24T06:30:24;8.40;;;7.60;;
4214;SDS011;2121;48.062;7.850;2022-07-24T06:32:53;8.67;;;7.70;;
4214;SDS011;2121;48.062;7.850;2022-07-24T06:35:23;8.60;;;7.90;;
4214;SDS011;2121;48.062;7.850;2022-07-24T06:37:50;9.23;;;8.10;;
4214;SDS011;2121;48.062;7.850;2022-07-24T06:40:17;7.43;;;6.83;;
4214;SDS011;2121;48.062;7.850;2022-07-24T06:42:44;8.77;;;7.97;;
4214;SDS011;2121;48.062;7.850;2022-07-24T06:45:12;8.50;;;7.17;;
4214;SDS011;2121;48.062;7.850;2022-07-24T06:47:38;8.20;;;7.60;;
4214;SDS011;2121;48.062;7.850;2022-07-24T06:50:05;8.33;;;7.53;;
4214;SDS011;2121;48.062;7.850;2022-07-24T06:52:31;8.97;;;8.17;;
4214;SDS011;2121;48.062;7.850;2022-07-24T06:54:57;9.53;;;6.77;;
4214;SDS011;2121;48.062;7.850;2022-07-24T06:57:23;9.30;;;8.37;;
4214;SDS011;2121;48.062;7.850;2022-07-24T06:59:51;15.80;;;7.30;;
4214;SDS011;2121;48.062;7.850;2022-07-24T07:02:17;8.50;;;7.57;;
4214;SDS011;2121;48.062;7.850;2022-07-24T07:04:44;9.00;;;7.40;;
4214;SDS011;2121;48.062;7.850;2022-07-24T07:07:10;8.43;;;7.63;;
4214;SDS011;2121;48.062;7.850;2022-07-24T07:09:37;9.00;;;8.10;;
4214;SDS011;2121;48.062;7.850;2022-07-24T07:12:03;8.23;;;7.43;;
4214;SDS011;2121;48.062;7.850;2022-07-24T07:14:30;7.90;;;7.20;;
4214;SDS011;2121;48.062;7.850;2022-07-24T07:16:56;8.40;;;7.60;;
4214;SDS011;2121;48.062;7.850;2022-07-24T07:19:21;10.73;;;8.07;;
4214;SDS011;2121;48.062;7.850;2022-07-24T07:21:47;11.00;;;7.83;;
4214;SDS011;2121;48.062;7.850;2022-07-24T07:24:13;8.60;;;7.53;;
4214;SDS011;2121;48.062;7.850;2022-07-24T07:26:39;9.97;;;8.40;;
4214;SDS011;2121;48.062;7.850;2022-07-24T07:29:05;9.07;;;8.27;;
4214;SDS011;2121;48.062;7.850;2022-07-24T07:31:30;8.57;;;7.77;;
4214;SDS011;2121;48.062;7.850;2022-07-24T07:33:56;8.30;;;7.27;;
4214;SDS011;2121;48.062;7.850;2022-07-24T07:36:23;14.10;;;8.23;;
4214;SDS011;2121;48.062;7.850;2022-07-24T07:38:49;8.47;;;7.50;;
4214;SDS011;2121;48.062;7.850;2022-07-24T07:41:15;9.40;;;8.20;;
4214;SDS011;2121;48.062;7.850;2022-07-24T07:43:44;8.23;;;7.43;;
4214;SDS011;2121;48.062;7.850;2022-07-24T07:46:12;9.77;;;7.93;;
4214;SDS011;2121;48.062;7.850;2022-07-24T07:48:39;9.17;;;8.17;;
4214;SDS011;2121;48.062;7.850;2022-07-24T07:51:05;10.63;;;8.90;;
4214;SDS011;2121;48.062;7.850;2022-07-24T07:53:31;21.47;;;8.00;;
4214;SDS011;2121;48.062;7.850;2022-07-24T07:55:57;8.40;;;7.60;;
4214;SDS011;2121;48.062;7.850;2022-07-24T07:58:22;12.60;;;8.40;;
4214;SDS011;2121;48.062;7.850;2022-07-24T08:00:48;9.33;;;8.17;;
4214;SDS011;2121;48.062;7.850;2022-07-24T08:03:15;9.10;;;8.17;;
4214;SDS011;2121;48.062;7.850;2022-07-24T08:05:41;12.47;;;8.83;;
4214;SDS011;2121;48.062;7.850;2022-07-24T08:08:06;12.93;;;8.37;;
4214;SDS011;2121;48.062;7.850;2022-07-24T08:10:32;10.53;;;9.47;;
4214;SDS011;2121;48.062;7.850;2022-07-24T08:12:58;9.70;;;7.80;;
4214;SDS011;2121;48.062;7.850;2022-07-24T08:15:24;8.10;;;7.40;;
4214;SDS011;2121;48.062;7.850;2022-07-24T08:17:53;8.43;;;7.73;;
4214;SDS011;2121;48.062;7.850;2022-07-24T08:20:20;9.80;;;8.80;;
4214;SDS011;2121;48.062;7.850;2022-07-24T08:22:46;12.40;;;8.00;;
4214;SDS011;2121;48.062;7.850;2022-07-24T08:25:13;9.17;;;7.00;;
4214;SDS011;2121;48.062;7.850;2022-07-24T08:27:39;7.77;;;7.07;;
4214;SDS011;2121;48.062;7.850;2022-07-24T08:30:05;8.33;;;7.43;;
4214;SDS011;2121;48.062;7.850;2022-07-24T08:32:31;9.80;;;7.63;;
4214;SDS011;2121;48.062;7.850;2022-07-24T08:34:58;8.33;;;7.63;;
4214;SDS011;2121;48.062;7.850;2022-07-24T08:37:24;8.83;;;7.37;;
4214;SDS011;2121;48.062;7.850;2022-07-24T08:39:50;8.70;;;7.90;;
4214;SDS011;2121;48.062;7.850;2022-07-24T08:42:16;7.93;;;6.90;;
4214;SDS011;2121;48.062;7.850;2022-07-24T08:44:41;8.67;;;7.00;;
4214;SDS011;2121;48.062;7.850;2022-07-24T08:47:07;7.80;;;7.00;;
4214;SDS011;2121;48.062;7.850;2022-07-24T08:49:34;7.80;;;6.40;;
4214;SDS011;2121;48.062;7.850;2022-07-24T08:52:03;7.83;;;7.13;;
4214;SDS011;2121;48.062;7.850;2022-07-24T08:54:33;9.53;;;7.50;;
4214;SDS011;2121;48.062;7.850;2022-07-24T08:57:00;8.20;;;7.50;;
4214;SDS011;2121;48.062;7.850;2022-07-24T08:59:28;10.38;;;7.80;;
4214;SDS011;2121;48.062;7.850;2022-07-24T09:01:54;8.20;;;6.60;;
4214;SDS011;2121;48.062;7.850;2022-07-24T09:07:12;8.30;;;7.37;;
4214;SDS011;2121;48.062;7.850;2022-07-24T09:09:45;8.50;;;7.80;;
4214;SDS011;2121;48.062;7.850;2022-07-24T09:12:24;8.20;;;7.50;;
4214;SDS011;2121;48.062;7.850;2022-07-24T09:14:50;13.77;;;8.20;;
4214;SDS011;2121;48.062;7.850;2022-07-24T09:17:17;8.20;;;7.40;;
4214;SDS011;2121;48.062;7.850;2022-07-24T09:19:46;10.80;;;7.10;;
4214;SDS011;2121;48.062;7.850;2022-07-24T09:30:26;16.10;;;6.80;;
4214;SDS011;2121;48.062;7.850;2022-07-24T09:35:37;7.65;;;6.57;;
4214;SDS011;2121;48.062;7.850;2022-07-24T09:38:06;6.30;;;5.43;;
4214;SDS011;2121;48.062;7.850;2022-07-24T09:40:35;6.75;;;6.15;;
4214;SDS011;2121;48.062;7.850;2022-07-24T09:48:36;8.00;;;7.10;;
4214;SDS011;2121;48.062;7.850;2022-07-24T09:51:08;8.23;;;6.75;;
4214;SDS011;2121;48.062;7.850;2022-07-24T09:53:40;7.07;;;5.90;;
4214;SDS011;2121;48.062;7.850;2022-07-24T09:56:12;13.45;;;6.55;;
4214;SDS011;2121;48.062;7.850;2022-07-24T09:58:47;7.20;;;6.50;;
4214;SDS011;2121;48.062;7.850;2022-07-24T10:01:20;6.50;;;5.80;;
4214;SDS011;2121;48.062;7.850;2022-07-24T10:03:49;7.28;;;6.72;;
4214;SDS011;2121;48.062;7.850;2022-07-24T10:06:19;7.50;;;6.90;;
4214;SDS011;2121;48.062;7.850;2022-07-24T10:08:48;6.78;;;6.13;;
4214;SDS011;2121;48.062;7.850;2022-07-24T10:11:16;7.28;;;6.50;;
4214;SDS011;2121;48.062;7.850;2022-07-24T10:13:42;6.25;;;5.75;;
4214;SDS011;2121;48.062;7.850;2022-07-24T10:21:29;7.78;;;6.97;;
4214;SDS011;2121;48.062;7.850;2022-07-24T10:26:37;6.07;;;5.05;;
4214;SDS011;2121;48.062;7.850;2022-07-24T10:29:15;7.05;;;6.35;;
4214;SDS011;2121;48.062;7.850;2022-07-24T10:31:48;7.00;;;6.40;;
4214;SDS011;2121;48.062;7.850;2022-07-24T10:37:15;7.05;;;5.63;;
4214;SDS011;2121;48.062;7.850;2022-07-24T10:39:58;6.43;;;5.82;;
4214;SDS011;2121;48.062;7.850;2022-07-24T10:45:30;8.65;;;6.32;;
4214;SDS011;2121;48.062;7.850;2022-07-24T10:53:26;9.35;;;6.05;;
4214;SDS011;2121;48.062;7.850;2022-07-24T10:58:51;6.70;;;6.07;;
4214;SDS011;2121;48.062;7.850;2022-07-24T11:01:35;12.05;;;6.20;;
4214;SDS011;2121;48.062;7.850;2022-07-24T11:12:33;7.60;;;6.72;;
4214;SDS011;2121;48.062;7.850;2022-07-24T11:15:09;8.20;;;6.53;;
4214;SDS011;2121;48.062;7.850;2022-07-24T11:17:54;7.75;;;6.85;;
4214;SDS011;2121;48.062;7.850;2022-07-24T11:20:20;12.63;;;6.13;;
4214;SDS011;2121;48.062;7.850;2022-07-24T11:22:50;6.65;;;6.05;;
4214;SDS011;2121;48.062;7.850;2022-07-24T11:25:20;6.80;;;6.07;;
4214;SDS011;2121;48.062;7.850;2022-07-24T11:27:49;6.95;;;6.38;;
4214;SDS011;2121;48.062;7.850;2022-07-24T11:30:33;6.97;;;6.47;;
4214;SDS011;2121;48.062;7.850;2022-07-24T11:33:09;7.60;;;5.70;;
4214;SDS011;2121;48.062;7.850;2022-07-24T11:35:36;6.50;;;5.97;;
4214;SDS011;2121;48.062;7.850;2022-07-24T11:38:04;7.30;;;6.70;;
4214;SDS011;2121;48.062;7.850;2022-07-24T11:40:32;9.38;;;6.50;;
4214;SDS011;2121;48.062;7.850;2022-07-24T11:43:03;7.47;;;6.68;;
4214;SDS011;2121;48.062;7.850;2022-07-24T11:45:31;7.43;;;6.22;;
4214;SDS011;2121;48.062;7.850;2022-07-24T11:47:57;7.10;;;6.60;;
4214;SDS011;2121;48.062;7.850;2022-07-24T11:50:25;6.45;;;5.85;;
4214;SDS011;2121;48.062;7.850;2022-07-24T11:52:52;7.95;;;6.22;;
4214;SDS011;2121;48.062;7.850;2022-07-24T11:55:19;6.72;;;6.13;;
4214;SDS011;2121;48.062;7.850;2022-07-24T11:57:50;6.95;;;6.28;;
4214;SDS011;2121;48.062;7.850;2022-07-24T12:00:20;9.65;;;6.22;;
4214;SDS011;2121;48.062;7.850;2022-07-24T12:02:50;7.05;;;6.10;;
4214;SDS011;2121;48.062;7.850;2022-07-24T12:08:04;5.93;;;5.47;;
4214;SDS011;2121;48.062;7.850;2022-07-24T12:10:47;7.05;;;6.43;;
4214;SDS011;2121;48.062;7.850;2022-07-24T12:13:14;5.97;;;5.47;;
4214;SDS011;2121;48.062;7.850;2022-07-24T12:15:41;5.88;;;5.38;;
4214;SDS011;2121;48.062;7.850;2022-07-24T12:18:07;5.50;;;4.97;;
4214;SDS011;2121;48.062;7.850;2022-07-24T12:20:41;5.43;;;4.93;;
4214;SDS011;2121;48.062;7.850;2022-07-24T12:23:10;5.63;;;5.20;;
4214;SDS011;2121;48.062;7.850;2022-07-24T12:25:39;5.65;;;5.20;;
4214;SDS011;2121;48.062;7.850;2022-07-24T12:28:09;5.40;;;5.00;;
4214;SDS011;2121;48.062;7.850;2022-07-24T12:30:59;5.88;;;5.28;;
4214;SDS011;2121;48.062;7.850;2022-07-24T12:33:33;5.45;;;5.05;;
4214;SDS011;2121;48.062;7.850;2022-07-24T12:36:10;7.07;;;4.60;;
4214;SDS011;2121;48.062;7.850;2022-07-24T12:38:37;5.15;;;4.75;;
4214;SDS011;2121;48.062;7.850;2022-07-24T12:41:15;6.35;;;5.05;;
4214;SDS011;2121;48.062;7.850;2022-07-24T12:43:54;5.38;;;4.88;;
4214;SDS011;2121;48.062;7.850;2022-07-24T12:46:31;5.47;;;4.85;;
4214;SDS011;2121;48.062;7.850;2022-07-24T12:49:00;5.07;;;4.65;;
4214;SDS011;2121;48.062;7.850;2022-07-24T12:51:53;6.10;;;4.63;;
4214;SDS011;2121;48.062;7.850;2022-07-24T12:54:32;4.70;;;4.30;;
4214;SDS011;2121;48.062;7.850;2022-07-24T12:57:01;5.47;;;4.95;;
4214;SDS011;2121;48.062;7.850;2022-07-24T12:59:36;5.07;;;4.78;;
4214;SDS011;2121;48.062;7.850;2022-07-24T13:02:06;6.30;;;5.70;;
4214;SDS011;2121;48.062;7.850;2022-07-24T13:04:32;4.93;;;4.53;;
4214;SDS011;2121;48.062;7.850;2022-07-24T13:07:17;5.13;;;4.63;;
4214;SDS011;2121;48.062;7.850;2022-07-24T13:09:46;4.50;;;4.05;;
4214;SDS011;2121;48.062;7.850;2022-07-24T13:12:12;4.00;;;3.70;;
4214;SDS011;2121;48.062;7.850;2022-07-24T13:14:39;4.75;;;4.22;;
4214;SDS011;2121;48.062;7.850;2022-07-24T13:19:38;4.80;;;4.47;;
4214;SDS011;2121;48.062;7.850;2022-07-24T13:22:12;5.70;;;5.20;;
4214;SDS011;2121;48.062;7.850;2022-07-24T13:24:39;4.30;;;4.00;;
4214;SDS011;2121;48.062;7.850;2022-07-24T13:27:06;4.07;;;3.83;;
4214;SDS011;2121;48.062;7.850;2022-07-24T13:29:33;4.68;;;4.30;;
4214;SDS011;2121;48.062;7.850;2022-07-24T13:32:00;4.43;;;4.03;;
4214;SDS011;2121;48.062;7.850;2022-07-24T13:34:26;5.15;;;4.65;;
4214;SDS011;2121;48.062;7.850;2022-07-24T13:36:53;5.35;;;4.93;;
4214;SDS011;2121;48.062;7.850;2022-07-24T13:39:20;4.35;;;4.05;;
4214;SDS011;2121;48.062;7.850;2022-07-24T13:41:47;7.93;;;4.75;;
4214;SDS011;2121;48.062;7.850;2022-07-24T13:44:13;4.90;;;4.50;;
4214;SDS011;2121;48.062;7.850;2022-07-24T13:46:40;4.63;;;4.25;;
4214;SDS011;2121;48.062;7.850;2022-07-24T13:49:06;4.68;;;4.38;;
4214;SDS011;2121;48.062;7.850;2022-07-24T13:51:36;5.20;;;4.90;;
4214;SDS011;2121;48.062;7.850;2022-07-24T13:54:02;5.28;;;4.88;;
4214;SDS011;2121;48.062;7.850;2022-07-24T13:56:28;4.53;;;4.22;;
4214;SDS011;2121;48.062;7.850;2022-07-24T13:58:54;5.10;;;4.47;;
4214;SDS011;2121;48.062;7.850;2022-07-24T14:01:22;5.03;;;4.35;;
4214;SDS011;2121;48.062;7.850;2022-07-24T14:03:48;4.18;;;3.90;;
4214;SDS011;2121;48.062;7.850;2022-07-24T14:06:14;5.13;;;4.10;;
4214;SDS011;2121;48.062;7.850;2022-07-24T14:08:40;3.85;;;3.65;;
4214;SDS011;2121;48.062;7.850;2022-07-24T14:11:07;4.80;;;4.40;;
4214;SDS011;2121;48.062;7.850;2022-07-24T14:13:34;4.50;;;4.20;;
4214;SDS011;2121;48.062;7.850;2022-07-24T14:16:00;4.90;;;4.50;;
4214;SDS011;2121;48.062;7.850;2022-07-24T14:18:26;5.28;;;4.90;;
4214;SDS011;2121;48.062;7.850;2022-07-24T14:20:52;4.82;;;4.43;;
4214;SDS011;2121;48.062;7.850;2022-07-24T14:23:17;4.82;;;4.43;;
4214;SDS011;2121;48.062;7.850;2022-07-24T14:25:44;4.15;;;3.95;;
4214;SDS011;2121;48.062;7.850;2022-07-24T14:28:10;4.25;;;3.85;;
4214;SDS011;2121;48.062;7.850;2022-07-24T14:30:37;5.07;;;4.68;;
4214;SDS011;2121;48.062;7.850;2022-07-24T14:33:03;4.97;;;4.68;;
4214;SDS011;2121;48.062;7.850;2022-07-24T14:35:29;4.03;;;3.83;;
4214;SDS011;2121;48.062;7.850;2022-07-24T14:37:56;5.32;;;4.93;;
4214;SDS011;2121;48.062;7.850;2022-07-24T14:40:22;4.88;;;4.47;;
4214;SDS011;2121;48.062;7.850;2022-07-24T14:42:48;4.50;;;4.20;;
4214;SDS011;2121;48.062;7.850;2022-07-24T14:45:15;4.57;;;4.28;;
4214;SDS011;2121;48.062;7.850;2022-07-24T14:47:41;4.32;;;4.03;;
4214;SDS011;2121;48.062;7.850;2022-07-24T14:50:07;5.57;;;4.70;;
4214;SDS011;2121;48.062;7.850;2022-07-24T14:52:37;4.45;;;4.15;;
4214;SDS011;2121;48.062;7.850;2022-07-24T14:55:04;4.03;;;3.63;;
4214;SDS011;2121;48.062;7.850;2022-07-24T14:57:32;4.38;;;3.97;;
4214;SDS011;2121;48.062;7.850;2022-07-24T14:59:58;4.55;;;4.25;;
4214;SDS011;2121;48.062;7.850;2022-07-24T15:02:23;6.95;;;4.15;;
4214;SDS011;2121;48.062;7.850;2022-07-24T15:04:49;5.25;;;4.78;;
4214;SDS011;2121;48.062;7.850;2022-07-24T15:07:15;4.32;;;3.92;;
4214;SDS011;2121;48.062;7.850;2022-07-24T15:09:41;3.83;;;3.53;;
4214;SDS011;2121;48.062;7.850;2022-07-24T15:12:07;4.70;;;4.30;;
4214;SDS011;2121;48.062;7.850;2022-07-24T15:14:33;4.80;;;4.38;;
4214;SDS011;2121;48.062;7.850;2022-07-24T15:16:59;5.35;;;4.18;;
4214;SDS011;2121;48.062;7.850;2022-07-24T15:19:25;5.03;;;4.72;;
4214;SDS011;2121;48.062;7.850;2022-07-24T15:21:51;4.78;;;4.38;;
4214;SDS011;2121;48.062;7.850;2022-07-24T15:24:17;6.32;;;4.60;;
4214;SDS011;2121;48.062;7.850;2022-07-24T15:26:43;4.95;;;4.60;;
4214;SDS011;2121;48.062;7.850;2022-07-24T15:29:09;7.30;;;4.47;;
4214;SDS011;2121;48.062;7.850;2022-07-24T15:31:35;4.85;;;4.50;;
4214;SDS011;2121;48.062;7.850;2022-07-24T15:34:01;4.82;;;4.45;;
4214;SDS011;2121;48.062;7.850;2022-07-24T15:36:27;5.22;;;4.72;;
4214;SDS011;2121;48.062;7.850;2022-07-24T15:38:53;5.03;;;4.72;;
4214;SDS011;2121;48.062;7.850;2022-07-24T15:41:19;4.95;;;4.55;;
4214;SDS011;2121;48.062;7.850;2022-07-24T15:43:45;4.72;;;4.43;;
4214;SDS011;2121;48.062;7.850;2022-07-24T15:46:10;4.45;;;4.13;;
4214;SDS011;2121;48.062;7.850;2022-07-24T15:48:36;4.72;;;4.43;;
4214;SDS011;2121;48.062;7.850;2022-07-24T15:51:02;6.70;;;4.80;;
4214;SDS011;2121;48.062;7.850;2022-07-24T15:53:28;4.50;;;4.30;;
4214;SDS011;2121;48.062;7.850;2022-07-24T15:55:54;5.30;;;4.75;;
4214;SDS011;2121;48.062;7.850;2022-07-24T15:58:20;4.10;;;3.80;;
4214;SDS011;2121;48.062;7.850;2022-07-24T16:00:46;4.57;;;4.20;;
4214;SDS011;2121;48.062;7.850;2022-07-24T16:03:11;3.85;;;3.65;;